sensor_id;sensor_type;location;lat;lon;timestamp;temperature;humidity
19930;DHT22;10127;47.780;9.606;2023-04-24T00:01:49;11.40;99.90
19930;DHT22;10127;47.780;9.606;2023-04-24T00:04:15;11.40;99.90
19930;DHT22;10127;47.780;9.606;2023-04-24T00:06:42;11.40;99.90
19930;DHT22;10127;47.780;9.606;2023-04-24T00:09:09;11.40;99.90
19930;DHT22;10127;47.780;9.606;2023-04-24T00:11:37;11.40;99.90
19930;DHT22;10127;47.780;9.606;2023-04-24T00:14:03;11.40;99.90
19930;DHT22;10127;47.780;9.606;2023-04-24T00:16:28;11.40;99.90
19930;DHT22;10127;47.780;9.606;2023-04-24T00:18:54;11.50;99.90
19930;DHT22;10127;47.780;9.606;2023-04-24T00:21:20;11.50;99.90
19930;DHT22;10127;47.780;9.606;2023-04-24T00:23:47;11.50;99.90
19930;DHT22;10127;47.780;9.606;2023-04-24T00:26:13;11.60;99.90
19930;DHT22;10127;47.780;9.606;2023-04-24T00:28:39;11.50;99.90
19930;DHT22;10127;47.780;9.606;2023-04-24T00:31:04;11.50;99.90
19930;DHT22;10127;47.780;9.606;2023-04-24T00:33:30;11.50;99.90
19930;DHT22;10127;47.780;9.606;2023-04-24T00:35:55;11.50;99.90
19930;DHT22;10127;47.780;9.606;2023-04-24T00:38:21;11.50;99.90
19930;DHT22;10127;47.780;9.606;2023-04-24T00:40:48;11.50;99.90
19930;DHT22;10127;47.780;9.606;2023-04-24T00:43:15;11.50;99.90
19930;DHT22;10127;47.780;9.606;2023-04-24T00:45:41;11.50;99.90
19930;DHT22;10127;47.780;9.606;2023-04-24T00:48:07;11.50;99.90
19930;DHT22;10127;47.780;9.606;2023-04-24T00:50:33;11.50;99.90
19930;DHT22;10127;47.780;9.606;2023-04-24T00:52:58;11.50;99.90
19930;DHT22;10127;47.780;9.606;2023-04-24T00:55:24;11.50;99.90
19930;DHT22;10127;47.780;9.606;2023-04-24T00:57:51;11.50;99.90
19930;DHT22;10127;47.780;9.606;2023-04-24T01:00:17;11.50;99.90
19930;DHT22;10127;47.780;9.606;2023-04-24T01:02:44;11.50;99.90
19930;DHT22;10127;47.780;9.606;2023-04-24T01:05:14;11.50;99.90
19930;DHT22;10127;47.780;9.606;2023-04-24T01:07:41;11.60;99.90
19930;DHT22;10127;47.780;9.606;2023-04-24T01:10:09;11.60;99.90
19930;DHT22;10127;47.780;9.606;2023-04-24T01:12:35;11.60;99.90
19930;DHT22;10127;47.780;9.606;2023-04-24T01:15:02;11.60;99.90
19930;DHT22;10127;47.780;9.606;2023-04-24T01:17:29;11.60;99.90
19930;DHT22;10127;47.780;9.606;2023-04-24T01:19:55;11.40;99.90
19930;DHT22;10127;47.780;9.606;2023-04-24T01:22:22;11.40;99.90
19930;DHT22;10127;47.780;9.606;2023-04-24T01:24:48;11.50;99.90
19930;DHT22;10127;47.780;9.606;2023-04-24T01:27:13;11.50;99.90
19930;DHT22;10127;47.780;9.606;2023-04-24T01:29:39;11.50;99.90
19930;DHT22;10127;47.780;9.606;2023-04-24T01:32:05;11.50;99.90
19930;DHT22;10127;47.780;9.606;2023-04-24T01:34:31;11.50;99.90
19930;DHT22;10127;47.780;9.606;2023-04-24T01:36:57;11.50;99.90
19930;DHT22;10127;47.780;9.606;2023-04-24T01:39:23;11.50;99.90
19930;DHT22;10127;47.780;9.606;2023-04-24T01:41:53;11.60;99.90
19930;DHT22;10127;47.780;9.606;2023-04-24T01:44:19;11.60;99.90
19930;DHT22;10127;47.780;9.606;2023-04-24T01:46:45;11.50;99.90
19930;DHT22;10127;47.780;9.606;2023-04-24T01:49:10;11.40;99.90
19930;DHT22;10127;47.780;9.606;2023-04-24T01:51:36;11.50;99.90
19930;DHT22;10127;47.780;9.606;2023-04-24T01:54:02;11.50;99.90
19930;DHT22;10127;47.780;9.606;2023-04-24T01:56:29;11.50;99.90
19930;DHT22;10127;47.780;9.606;2023-04-24T01:58:56;11.40;99.90
19930;DHT22;10127;47.780;9.606;2023-04-24T02:01:23;11.40;99.90
19930;DHT22;10127;47.780;9.606;2023-04-24T02:03:49;11.30;99.90
19930;DHT22;10127;47.780;9.606;2023-04-24T02:06:14;11.30;99.90
19930;DHT22;10127;47.780;9.606;2023-04-24T02:08:40;11.30;99.90
19930;DHT22;10127;47.780;9.606;2023-04-24T02:11:06;11.40;99.90
19930;DHT22;10127;47.780;9.606;2023-04-24T02:13:31;11.30;99.90
19930;DHT22;10127;47.780;9.606;2023-04-24T02:15:58;11.30;99.90
19930;DHT22;10127;47.780;9.606;2023-04-24T02:18:24;11.40;99.90
19930;DHT22;10127;47.780;9.606;2023-04-24T02:20:50;11.30;99.90
19930;DHT22;10127;47.780;9.606;2023-04-24T02:23:15;11.30;99.90
19930;DHT22;10127;47.780;9.606;2023-04-24T02:25:41;11.30;99.90
19930;DHT22;10127;47.780;9.606;2023-04-24T02:28:06;11.40;99.90
19930;DHT22;10127;47.780;9.606;2023-04-24T02:30:32;11.40;99.90
19930;DHT22;10127;47.780;9.606;2023-04-24T02:32:58;11.40;99.90
19930;DHT22;10127;47.780;9.606;2023-04-24T02:35:23;11.40;99.90
19930;DHT22;10127;47.780;9.606;2023-04-24T02:37:49;11.40;99.90
19930;DHT22;10127;47.780;9.606;2023-04-24T02:40:15;11.40;99.90
19930;DHT22;10127;47.780;9.606;2023-04-24T02:42:40;11.40;99.90
19930;DHT22;10127;47.780;9.606;2023-04-24T02:45:06;11.40;99.90
19930;DHT22;10127;47.780;9.606;2023-04-24T02:47:32;11.50;99.90
19930;DHT22;10127;47.780;9.606;2023-04-24T03:10:35;11.30;99.90
19930;DHT22;10127;47.780;9.606;2023-04-24T03:13:01;11.30;99.90
19930;DHT22;10127;47.780;9.606;2023-04-24T03:15:26;11.30;99.90
19930;DHT22;10127;47.780;9.606;2023-04-24T03:17:52;11.30;99.90
19930;DHT22;10127;47.780;9.606;2023-04-24T03:20:17;11.20;99.90
19930;DHT22;10127;47.780;9.606;2023-04-24T03:22:43;11.20;99.90
19930;DHT22;10127;47.780;9.606;2023-04-24T03:25:09;11.10;99.90
19930;DHT22;10127;47.780;9.606;2023-04-24T03:27:35;11.00;99.90
19930;DHT22;10127;47.780;9.606;2023-04-24T03:30:00;11.10;99.90
19930;DHT22;10127;47.780;9.606;2023-04-24T03:32:26;11.10;99.90
19930;DHT22;10127;47.780;9.606;2023-04-24T03:34:52;11.10;99.90
19930;DHT22;10127;47.780;9.606;2023-04-24T03:37:18;11.00;99.90
19930;DHT22;10127;47.780;9.606;2023-04-24T03:39:43;11.00;99.90
19930;DHT22;10127;47.780;9.606;2023-04-24T03:42:09;11.00;99.90
19930;DHT22;10127;47.780;9.606;2023-04-24T03:44:35;11.00;99.90
19930;DHT22;10127;47.780;9.606;2023-04-24T03:47:01;11.00;99.90
19930;DHT22;10127;47.780;9.606;2023-04-24T03:49:34;11.00;99.90
19930;DHT22;10127;47.780;9.606;2023-04-24T03:51:59;10.90;99.90
19930;DHT22;10127;47.780;9.606;2023-04-24T03:54:25;10.90;99.90
19930;DHT22;10127;47.780;9.606;2023-04-24T03:56:51;10.90;99.90
19930;DHT22;10127;47.780;9.606;2023-04-24T03:59:17;10.90;99.90
19930;DHT22;10127;47.780;9.606;2023-04-24T04:01:42;10.80;99.90
19930;DHT22;10127;47.780;9.606;2023-04-24T04:04:08;10.80;99.90
19930;DHT22;10127;47.780;9.606;2023-04-24T04:06:33;10.70;99.90
19930;DHT22;10127;47.780;9.606;2023-04-24T04:09:00;10.70;99.90
19930;DHT22;10127;47.780;9.606;2023-04-24T04:11:25;10.70;99.90
19930;DHT22;10127;47.780;9.606;2023-04-24T04:13:51;10.70;99.90
19930;DHT22;10127;47.780;9.606;2023-04-24T04:16:17;10.70;99.90
19930;DHT22;10127;47.780;9.606;2023-04-24T04:18:43;10.70;99.90
19930;DHT22;10127;47.780;9.606;2023-04-24T04:21:09;10.70;99.90
19930;DHT22;10127;47.780;9.606;2023-04-24T04:23:34;10.70;99.90
19930;DHT22;10127;47.780;9.606;2023-04-24T04:26:00;10.70;99.90
19930;DHT22;10127;47.780;9.606;2023-04-24T04:28:26;10.80;99.90
19930;DHT22;10127;47.780;9.606;2023-04-24T04:30:52;10.70;99.90
19930;DHT22;10127;47.780;9.606;2023-04-24T04:33:20;10.70;99.90
19930;DHT22;10127;47.780;9.606;2023-04-24T04:35:46;10.80;99.90
19930;DHT22;10127;47.780;9.606;2023-04-24T04:38:14;10.80;99.90
19930;DHT22;10127;47.780;9.606;2023-04-24T04:40:40;10.80;99.90
19930;DHT22;10127;47.780;9.606;2023-04-24T04:43:06;10.90;99.90
19930;DHT22;10127;47.780;9.606;2023-04-24T04:45:32;11.00;99.90
19930;DHT22;10127;47.780;9.606;2023-04-24T04:47:58;10.90;99.90
19930;DHT22;10127;47.780;9.606;2023-04-24T04:50:26;10.90;99.90
19930;DHT22;10127;47.780;9.606;2023-04-24T04:52:52;10.90;99.90
19930;DHT22;10127;47.780;9.606;2023-04-24T04:55:17;10.90;99.90
19930;DHT22;10127;47.780;9.606;2023-04-24T04:57:45;10.90;99.90
19930;DHT22;10127;47.780;9.606;2023-04-24T05:00:11;10.90;99.90
19930;DHT22;10127;47.780;9.606;2023-04-24T05:02:40;11.10;99.90
19930;DHT22;10127;47.780;9.606;2023-04-24T05:05:06;11.00;99.90
19930;DHT22;10127;47.780;9.606;2023-04-24T05:07:32;11.10;99.90
19930;DHT22;10127;47.780;9.606;2023-04-24T05:09:58;11.10;99.90
19930;DHT22;10127;47.780;9.606;2023-04-24T05:12:23;11.20;99.90
19930;DHT22;10127;47.780;9.606;2023-04-24T05:14:49;11.10;99.90
19930;DHT22;10127;47.780;9.606;2023-04-24T05:17:15;11.20;99.90
19930;DHT22;10127;47.780;9.606;2023-04-24T05:19:41;11.20;99.90
19930;DHT22;10127;47.780;9.606;2023-04-24T05:22:07;11.30;99.90
19930;DHT22;10127;47.780;9.606;2023-04-24T05:24:33;11.40;99.90
19930;DHT22;10127;47.780;9.606;2023-04-24T05:26:59;11.40;99.90
19930;DHT22;10127;47.780;9.606;2023-04-24T05:29:25;11.40;99.90
19930;DHT22;10127;47.780;9.606;2023-04-24T05:31:56;11.50;99.90
19930;DHT22;10127;47.780;9.606;2023-04-24T05:34:22;11.50;99.90
19930;DHT22;10127;47.780;9.606;2023-04-24T05:36:48;11.40;99.90
19930;DHT22;10127;47.780;9.606;2023-04-24T05:39:14;11.30;99.90
19930;DHT22;10127;47.780;9.606;2023-04-24T05:41:40;11.40;99.90
19930;DHT22;10127;47.780;9.606;2023-04-24T05:44:06;11.40;99.90
19930;DHT22;10127;47.780;9.606;2023-04-24T05:46:31;11.40;99.90
19930;DHT22;10127;47.780;9.606;2023-04-24T05:48:57;11.50;99.90
19930;DHT22;10127;47.780;9.606;2023-04-24T05:51:23;11.60;99.90
19930;DHT22;10127;47.780;9.606;2023-04-24T05:53:49;11.40;99.90
19930;DHT22;10127;47.780;9.606;2023-04-24T05:56:15;11.30;99.90
19930;DHT22;10127;47.780;9.606;2023-04-24T05:58:41;11.30;99.90
19930;DHT22;10127;47.780;9.606;2023-04-24T06:01:07;11.30;99.90
19930;DHT22;10127;47.780;9.606;2023-04-24T06:03:32;11.30;99.90
19930;DHT22;10127;47.780;9.606;2023-04-24T06:05:58;11.40;99.90
19930;DHT22;10127;47.780;9.606;2023-04-24T06:08:24;11.30;99.90
19930;DHT22;10127;47.780;9.606;2023-04-24T06:10:50;11.40;99.90
19930;DHT22;10127;47.780;9.606;2023-04-24T06:13:15;11.40;99.90
19930;DHT22;10127;47.780;9.606;2023-04-24T06:15:41;11.30;99.90
19930;DHT22;10127;47.780;9.606;2023-04-24T06:18:07;11.30;99.90
19930;DHT22;10127;47.780;9.606;2023-04-24T06:20:35;11.30;99.90
19930;DHT22;10127;47.780;9.606;2023-04-24T06:23:00;11.40;99.90
19930;DHT22;10127;47.780;9.606;2023-04-24T06:25:26;11.60;99.90
19930;DHT22;10127;47.780;9.606;2023-04-24T06:27:52;11.60;99.90
19930;DHT22;10127;47.780;9.606;2023-04-24T06:30:18;11.60;99.90
19930;DHT22;10127;47.780;9.606;2023-04-24T06:32:43;11.60;99.90
19930;DHT22;10127;47.780;9.606;2023-04-24T06:35:09;11.50;99.90
19930;DHT22;10127;47.780;9.606;2023-04-24T06:37:36;11.30;99.90
19930;DHT22;10127;47.780;9.606;2023-04-24T06:40:02;11.30;99.90
19930;DHT22;10127;47.780;9.606;2023-04-24T06:42:28;11.10;99.90
19930;DHT22;10127;47.780;9.606;2023-04-24T06:44:54;11.00;99.90
19930;DHT22;10127;47.780;9.606;2023-04-24T06:47:20;11.00;99.90
19930;DHT22;10127;47.780;9.606;2023-04-24T06:49:45;11.10;99.90
19930;DHT22;10127;47.780;9.606;2023-04-24T06:52:11;11.30;99.90
19930;DHT22;10127;47.780;9.606;2023-04-24T06:54:36;11.50;99.90
19930;DHT22;10127;47.780;9.606;2023-04-24T06:57:02;11.60;99.90
19930;DHT22;10127;47.780;9.606;2023-04-24T06:59:29;11.60;99.90
19930;DHT22;10127;47.780;9.606;2023-04-24T07:01:56;11.60;99.90
19930;DHT22;10127;47.780;9.606;2023-04-24T07:04:22;11.50;99.90
19930;DHT22;10127;47.780;9.606;2023-04-24T07:06:50;11.50;99.90
19930;DHT22;10127;47.780;9.606;2023-04-24T07:09:16;11.40;99.90
19930;DHT22;10127;47.780;9.606;2023-04-24T07:11:44;11.70;99.90
19930;DHT22;10127;47.780;9.606;2023-04-24T07:14:10;12.10;99.90
19930;DHT22;10127;47.780;9.606;2023-04-24T07:16:35;12.30;99.90
19930;DHT22;10127;47.780;9.606;2023-04-24T07:19:01;12.30;99.90
19930;DHT22;10127;47.780;9.606;2023-04-24T07:21:26;12.20;99.90
19930;DHT22;10127;47.780;9.606;2023-04-24T07:23:53;12.00;99.90
19930;DHT22;10127;47.780;9.606;2023-04-24T07:26:19;12.00;99.90
19930;DHT22;10127;47.780;9.606;2023-04-24T07:28:46;12.00;99.90
19930;DHT22;10127;47.780;9.606;2023-04-24T07:31:11;12.10;99.90
19930;DHT22;10127;47.780;9.606;2023-04-24T07:33:37;12.40;99.90
19930;DHT22;10127;47.780;9.606;2023-04-24T07:36:03;12.30;99.90
19930;DHT22;10127;47.780;9.606;2023-04-24T07:38:30;12.30;99.90
19930;DHT22;10127;47.780;9.606;2023-04-24T07:40:55;12.70;99.90
19930;DHT22;10127;47.780;9.606;2023-04-24T07:43:21;12.90;99.90
19930;DHT22;10127;47.780;9.606;2023-04-24T07:45:47;13.20;99.90
19930;DHT22;10127;47.780;9.606;2023-04-24T07:48:13;13.20;99.90
19930;DHT22;10127;47.780;9.606;2023-04-24T07:50:41;13.30;99.90
19930;DHT22;10127;47.780;9.606;2023-04-24T07:53:07;13.30;99.90
19930;DHT22;10127;47.780;9.606;2023-04-24T07:55:33;13.60;99.90
19930;DHT22;10127;47.780;9.606;2023-04-24T07:57:58;13.20;99.90
19930;DHT22;10127;47.780;9.606;2023-04-24T08:00:24;13.40;99.90
19930;DHT22;10127;47.780;9.606;2023-04-24T08:02:49;13.30;99.90
19930;DHT22;10127;47.780;9.606;2023-04-24T08:05:15;13.40;99.90
19930;DHT22;10127;47.780;9.606;2023-04-24T08:07:41;13.30;99.90
19930;DHT22;10127;47.780;9.606;2023-04-24T08:10:10;13.30;99.90
19930;DHT22;10127;47.780;9.606;2023-04-24T08:12:37;13.30;99.90
19930;DHT22;10127;47.780;9.606;2023-04-24T08:15:04;13.30;99.90
19930;DHT22;10127;47.780;9.606;2023-04-24T08:17:29;13.50;99.90
19930;DHT22;10127;47.780;9.606;2023-04-24T08:19:55;13.40;99.90
19930;DHT22;10127;47.780;9.606;2023-04-24T08:22:27;13.40;99.90
19930;DHT22;10127;47.780;9.606;2023-04-24T08:24:53;13.30;99.90
19930;DHT22;10127;47.780;9.606;2023-04-24T08:27:19;13.20;99.90
19930;DHT22;10127;47.780;9.606;2023-04-24T08:29:44;13.00;99.90
19930;DHT22;10127;47.780;9.606;2023-04-24T08:32:10;13.00;99.90
19930;DHT22;10127;47.780;9.606;2023-04-24T08:34:35;13.30;99.90
19930;DHT22;10127;47.780;9.606;2023-04-24T08:37:02;13.60;99.90
19930;DHT22;10127;47.780;9.606;2023-04-24T08:39:27;13.80;99.90
19930;DHT22;10127;47.780;9.606;2023-04-24T08:41:54;13.60;99.90
19930;DHT22;10127;47.780;9.606;2023-04-24T08:44:20;13.40;99.90
19930;DHT22;10127;47.780;9.606;2023-04-24T08:46:53;13.30;99.90
19930;DHT22;10127;47.780;9.606;2023-04-24T08:49:19;13.10;99.90
19930;DHT22;10127;47.780;9.606;2023-04-24T08:51:45;12.90;99.90
19930;DHT22;10127;47.780;9.606;2023-04-24T08:54:12;12.40;99.90
19930;DHT22;10127;47.780;9.606;2023-04-24T08:56:40;12.10;99.90
19930;DHT22;10127;47.780;9.606;2023-04-24T08:59:08;11.80;99.90
19930;DHT22;10127;47.780;9.606;2023-04-24T09:01:34;11.20;99.90
19930;DHT22;10127;47.780;9.606;2023-04-24T09:04:03;11.00;99.90
19930;DHT22;10127;47.780;9.606;2023-04-24T09:06:30;11.30;99.90
19930;DHT22;10127;47.780;9.606;2023-04-24T09:09:00;11.20;99.90
19930;DHT22;10127;47.780;9.606;2023-04-24T09:11:26;11.60;99.90
19930;DHT22;10127;47.780;9.606;2023-04-24T09:13:54;11.80;99.90
19930;DHT22;10127;47.780;9.606;2023-04-24T09:16:20;12.10;99.90
19930;DHT22;10127;47.780;9.606;2023-04-24T09:18:48;12.40;99.90
19930;DHT22;10127;47.780;9.606;2023-04-24T09:21:14;12.60;99.90
19930;DHT22;10127;47.780;9.606;2023-04-24T09:23:40;12.40;99.90
19930;DHT22;10127;47.780;9.606;2023-04-24T09:26:06;12.40;99.90
19930;DHT22;10127;47.780;9.606;2023-04-24T09:28:38;12.40;99.90
19930;DHT22;10127;47.780;9.606;2023-04-24T09:31:07;12.50;99.90
19930;DHT22;10127;47.780;9.606;2023-04-24T09:33:33;12.60;99.90
19930;DHT22;10127;47.780;9.606;2023-04-24T09:35:58;13.00;99.90
19930;DHT22;10127;47.780;9.606;2023-04-24T09:38:37;13.30;99.90
19930;DHT22;10127;47.780;9.606;2023-04-24T09:41:06;13.50;99.90
19930;DHT22;10127;47.780;9.606;2023-04-24T09:43:32;13.60;99.90
19930;DHT22;10127;47.780;9.606;2023-04-24T09:45:59;13.30;99.90
19930;DHT22;10127;47.780;9.606;2023-04-24T09:48:33;13.40;99.90
19930;DHT22;10127;47.780;9.606;2023-04-24T09:50:59;13.40;99.90
19930;DHT22;10127;47.780;9.606;2023-04-24T09:53:26;13.30;99.90
19930;DHT22;10127;47.780;9.606;2023-04-24T09:55:52;13.20;99.90
19930;DHT22;10127;47.780;9.606;2023-04-24T09:58:24;13.10;99.90
19930;DHT22;10127;47.780;9.606;2023-04-24T10:00:54;13.10;99.90
19930;DHT22;10127;47.780;9.606;2023-04-24T10:03:20;13.60;99.90
19930;DHT22;10127;47.780;9.606;2023-04-24T10:05:47;14.00;99.90
19930;DHT22;10127;47.780;9.606;2023-04-24T10:08:13;14.10;99.90
19930;DHT22;10127;47.780;9.606;2023-04-24T10:10:41;14.20;99.90
19930;DHT22;10127;47.780;9.606;2023-04-24T10:13:08;14.20;99.90
19930;DHT22;10127;47.780;9.606;2023-04-24T10:15:34;14.10;99.90
19930;DHT22;10127;47.780;9.606;2023-04-24T10:18:00;14.10;99.90
19930;DHT22;10127;47.780;9.606;2023-04-24T10:20:29;14.20;99.90
19930;DHT22;10127;47.780;9.606;2023-04-24T10:22:56;14.30;99.90
19930;DHT22;10127;47.780;9.606;2023-04-24T10:25:24;14.20;99.90
19930;DHT22;10127;47.780;9.606;2023-04-24T10:27:51;14.20;99.90
19930;DHT22;10127;47.780;9.606;2023-04-24T10:30:19;14.40;99.90
19930;DHT22;10127;47.780;9.606;2023-04-24T10:32:45;14.50;99.90
19930;DHT22;10127;47.780;9.606;2023-04-24T10:35:13;14.70;99.90
19930;DHT22;10127;47.780;9.606;2023-04-24T10:37:46;15.10;99.90
19930;DHT22;10127;47.780;9.606;2023-04-24T10:40:17;15.30;99.90
19930;DHT22;10127;47.780;9.606;2023-04-24T10:42:47;14.90;99.90
19930;DHT22;10127;47.780;9.606;2023-04-24T10:45:20;14.90;99.90
19930;DHT22;10127;47.780;9.606;2023-04-24T10:48:03;14.70;99.90
19930;DHT22;10127;47.780;9.606;2023-04-24T10:50:43;14.20;99.90
19930;DHT22;10127;47.780;9.606;2023-04-24T10:53:17;14.20;99.90
19930;DHT22;10127;47.780;9.606;2023-04-24T10:58:24;13.70;99.90
19930;DHT22;10127;47.780;9.606;2023-04-24T11:00:58;13.40;99.90
19930;DHT22;10127;47.780;9.606;2023-04-24T11:03:30;13.40;99.90
19930;DHT22;10127;47.780;9.606;2023-04-24T11:11:10;14.30;99.90
19930;DHT22;10127;47.780;9.606;2023-04-24T11:19:17;15.20;99.90
19930;DHT22;10127;47.780;9.606;2023-04-24T11:22:13;14.80;99.90
19930;DHT22;10127;47.780;9.606;2023-04-24T11:32:29;14.40;99.90
19930;DHT22;10127;47.780;9.606;2023-04-24T11:34:58;14.30;99.90
19930;DHT22;10127;47.780;9.606;2023-04-24T11:37:27;14.20;99.90
19930;DHT22;10127;47.780;9.606;2023-04-24T11:39:54;14.90;99.90
19930;DHT22;10127;47.780;9.606;2023-04-24T11:42:21;15.20;99.90
19930;DHT22;10127;47.780;9.606;2023-04-24T11:44:47;15.50;99.90
19930;DHT22;10127;47.780;9.606;2023-04-24T11:47:14;15.70;99.90
19930;DHT22;10127;47.780;9.606;2023-04-24T11:49:40;15.40;99.90
19930;DHT22;10127;47.780;9.606;2023-04-24T11:52:06;14.90;99.90
19930;DHT22;10127;47.780;9.606;2023-04-24T11:54:32;14.20;99.90
19930;DHT22;10127;47.780;9.606;2023-04-24T11:56:57;14.20;99.90
19930;DHT22;10127;47.780;9.606;2023-04-24T11:59:23;14.30;99.90
19930;DHT22;10127;47.780;9.606;2023-04-24T12:01:49;14.50;99.90
19930;DHT22;10127;47.780;9.606;2023-04-24T12:04:16;14.40;99.90
19930;DHT22;10127;47.780;9.606;2023-04-24T12:07:04;13.90;99.90
19930;DHT22;10127;47.780;9.606;2023-04-24T12:09:44;13.70;99.90
19930;DHT22;10127;47.780;9.606;2023-04-24T12:12:12;14.30;99.90
19930;DHT22;10127;47.780;9.606;2023-04-24T12:14:49;15.00;99.90
19930;DHT22;10127;47.780;9.606;2023-04-24T12:17:16;15.50;99.90
19930;DHT22;10127;47.780;9.606;2023-04-24T12:19:47;16.00;99.90
19930;DHT22;10127;47.780;9.606;2023-04-24T12:22:13;15.90;99.90
19930;DHT22;10127;47.780;9.606;2023-04-24T12:24:58;15.90;99.90
19930;DHT22;10127;47.780;9.606;2023-04-24T12:27:24;15.90;99.90
19930;DHT22;10127;47.780;9.606;2023-04-24T12:29:57;15.90;99.90
19930;DHT22;10127;47.780;9.606;2023-04-24T12:32:23;16.30;99.90
19930;DHT22;10127;47.780;9.606;2023-04-24T12:34:51;16.10;99.70
19930;DHT22;10127;47.780;9.606;2023-04-24T12:37:20;16.40;99.50
19930;DHT22;10127;47.780;9.606;2023-04-24T12:39:59;16.20;99.00
19930;DHT22;10127;47.780;9.606;2023-04-24T12:42:30;16.30;98.30
19930;DHT22;10127;47.780;9.606;2023-04-24T12:45:02;16.10;98.40
19930;DHT22;10127;47.780;9.606;2023-04-24T12:47:29;15.80;98.60
19930;DHT22;10127;47.780;9.606;2023-04-24T12:49:54;15.40;98.30
19930;DHT22;10127;47.780;9.606;2023-04-24T12:52:22;15.00;98.40
19930;DHT22;10127;47.780;9.606;2023-04-24T12:54:49;15.10;99.60
19930;DHT22;10127;47.780;9.606;2023-04-24T12:57:15;15.40;98.80
19930;DHT22;10127;47.780;9.606;2023-04-24T12:59:40;15.50;99.20
19930;DHT22;10127;47.780;9.606;2023-04-24T13:02:06;15.60;98.60
19930;DHT22;10127;47.780;9.606;2023-04-24T13:04:32;15.50;99.30
19930;DHT22;10127;47.780;9.606;2023-04-24T13:06:58;15.60;99.00
19930;DHT22;10127;47.780;9.606;2023-04-24T13:09:23;15.70;99.80
19930;DHT22;10127;47.780;9.606;2023-04-24T13:11:50;15.70;98.50
19930;DHT22;10127;47.780;9.606;2023-04-24T13:14:15;15.50;99.20
19930;DHT22;10127;47.780;9.606;2023-04-24T13:16:41;15.80;98.60
19930;DHT22;10127;47.780;9.606;2023-04-24T13:19:06;15.80;98.00
19930;DHT22;10127;47.780;9.606;2023-04-24T13:21:32;15.40;98.40
19930;DHT22;10127;47.780;9.606;2023-04-24T13:23:58;15.60;99.40
19930;DHT22;10127;47.780;9.606;2023-04-24T13:26:24;15.20;97.80
19930;DHT22;10127;47.780;9.606;2023-04-24T13:28:50;15.40;97.90
19930;DHT22;10127;47.780;9.606;2023-04-24T13:31:15;15.70;99.60
19930;DHT22;10127;47.780;9.606;2023-04-24T13:33:41;16.40;97.80
19930;DHT22;10127;47.780;9.606;2023-04-24T13:36:07;16.60;97.90
19930;DHT22;10127;47.780;9.606;2023-04-24T13:38:33;16.70;96.50
19930;DHT22;10127;47.780;9.606;2023-04-24T13:41:06;16.60;96.70
19930;DHT22;10127;47.780;9.606;2023-04-24T13:43:31;16.50;97.00
19930;DHT22;10127;47.780;9.606;2023-04-24T13:45:57;17.00;96.90
19930;DHT22;10127;47.780;9.606;2023-04-24T13:48:24;16.50;96.50
19930;DHT22;10127;47.780;9.606;2023-04-24T13:50:50;17.20;96.00
19930;DHT22;10127;47.780;9.606;2023-04-24T13:53:15;17.10;96.10
19930;DHT22;10127;47.780;9.606;2023-04-24T13:55:41;17.30;96.00
19930;DHT22;10127;47.780;9.606;2023-04-24T13:58:07;17.30;95.30
19930;DHT22;10127;47.780;9.606;2023-04-24T14:00:33;17.20;95.50
19930;DHT22;10127;47.780;9.606;2023-04-24T14:02:58;17.10;96.00
19930;DHT22;10127;47.780;9.606;2023-04-24T14:05:24;17.50;95.20
19930;DHT22;10127;47.780;9.606;2023-04-24T14:07:50;17.50;95.80
19930;DHT22;10127;47.780;9.606;2023-04-24T14:10:16;17.50;95.60
19930;DHT22;10127;47.780;9.606;2023-04-24T14:12:41;17.00;95.70
19930;DHT22;10127;47.780;9.606;2023-04-24T14:15:07;16.80;95.90
19930;DHT22;10127;47.780;9.606;2023-04-24T14:17:34;16.50;96.70
19930;DHT22;10127;47.780;9.606;2023-04-24T14:19:59;16.60;97.10
19930;DHT22;10127;47.780;9.606;2023-04-24T14:22:25;16.70;95.50
19930;DHT22;10127;47.780;9.606;2023-04-24T14:24:51;17.00;95.50
19930;DHT22;10127;47.780;9.606;2023-04-24T14:27:17;17.40;94.90
19930;DHT22;10127;47.780;9.606;2023-04-24T14:29:42;17.10;94.40
19930;DHT22;10127;47.780;9.606;2023-04-24T14:32:10;17.30;95.00
19930;DHT22;10127;47.780;9.606;2023-04-24T14:34:35;17.30;95.10
19930;DHT22;10127;47.780;9.606;2023-04-24T14:37:01;17.70;94.90
19930;DHT22;10127;47.780;9.606;2023-04-24T14:39:30;17.10;94.30
19930;DHT22;10127;47.780;9.606;2023-04-24T14:41:55;16.80;94.80
19930;DHT22;10127;47.780;9.606;2023-04-24T14:44:22;16.90;95.00
19930;DHT22;10127;47.780;9.606;2023-04-24T14:46:48;16.70;96.30
19930;DHT22;10127;47.780;9.606;2023-04-24T14:49:14;16.10;96.00
19930;DHT22;10127;47.780;9.606;2023-04-24T14:51:40;15.80;94.80
19930;DHT22;10127;47.780;9.606;2023-04-24T14:54:06;15.70;95.30
19930;DHT22;10127;47.780;9.606;2023-04-24T14:56:32;15.40;95.70
19930;DHT22;10127;47.780;9.606;2023-04-24T14:58:57;15.30;97.90
19930;DHT22;10127;47.780;9.606;2023-04-24T15:01:23;13.70;99.90
19930;DHT22;10127;47.780;9.606;2023-04-24T15:03:49;13.10;99.90
19930;DHT22;10127;47.780;9.606;2023-04-24T15:06:15;12.50;99.90
19930;DHT22;10127;47.780;9.606;2023-04-24T15:08:41;12.60;99.90
19930;DHT22;10127;47.780;9.606;2023-04-24T15:11:07;12.90;99.90
19930;DHT22;10127;47.780;9.606;2023-04-24T15:13:33;13.00;99.90
19930;DHT22;10127;47.780;9.606;2023-04-24T15:15:59;13.00;99.90
19930;DHT22;10127;47.780;9.606;2023-04-24T15:18:24;13.10;99.90
19930;DHT22;10127;47.780;9.606;2023-04-24T15:20:50;13.40;99.90
19930;DHT22;10127;47.780;9.606;2023-04-24T15:23:15;13.80;99.90
19930;DHT22;10127;47.780;9.606;2023-04-24T15:25:41;14.60;99.90
19930;DHT22;10127;47.780;9.606;2023-04-24T15:28:06;15.00;99.90
19930;DHT22;10127;47.780;9.606;2023-04-24T15:30:32;15.00;99.90
19930;DHT22;10127;47.780;9.606;2023-04-24T15:33:00;14.90;99.90
19930;DHT22;10127;47.780;9.606;2023-04-24T15:35:26;14.90;99.90
19930;DHT22;10127;47.780;9.606;2023-04-24T15:37:52;14.80;99.90
19930;DHT22;10127;47.780;9.606;2023-04-24T15:40:17;14.70;99.90
19930;DHT22;10127;47.780;9.606;2023-04-24T15:42:43;14.50;99.90
19930;DHT22;10127;47.780;9.606;2023-04-24T15:45:09;14.20;99.90
19930;DHT22;10127;47.780;9.606;2023-04-24T15:47:35;14.30;99.90
19930;DHT22;10127;47.780;9.606;2023-04-24T15:50:02;14.50;99.90
19930;DHT22;10127;47.780;9.606;2023-04-24T15:52:27;14.40;99.90
19930;DHT22;10127;47.780;9.606;2023-04-24T15:54:53;14.30;99.90
19930;DHT22;10127;47.780;9.606;2023-04-24T15:57:18;14.30;99.90
19930;DHT22;10127;47.780;9.606;2023-04-24T15:59:44;14.40;99.90
19930;DHT22;10127;47.780;9.606;2023-04-24T16:02:12;14.60;99.90
19930;DHT22;10127;47.780;9.606;2023-04-24T16:04:45;16.30;99.90
19930;DHT22;10127;47.780;9.606;2023-04-24T16:07:12;15.80;99.90
19930;DHT22;10127;47.780;9.606;2023-04-24T16:09:37;15.50;99.90